Terminal Aerodrome Forecast
Issued by NWS

Home | Current Version | Previous Version | Text Only | Print | Product List | Glossary On
Versions: 1 2 3 4 5 6 7 8 9 10 11 12 13 14 15
000
FTUS44 KCRP 242300
TAFLRD
TAF
KLRD 242322Z 2500/2524 VRB04KT P6SM SCT200
     FM251800 31008KT P6SM FEW120 SCT250
      AMD NOT SKED AFT 250400=

USA.gov is the U.S. government's official web portal to all federal, state and local government web resources and services.